Hlavní strana
METAR-TAF:

METAR-TAF

Letiště :

Puerto Cabezas, Nikaragua

zeměpisná šířka: 14-03N, zeměpisná délka: 083-22W, výška: 20 m

Aktuální stav počasí

Zpráva byla vytvořena před 4 hodinami a 38 minutami, v 23:00 UTC
Východoseverovýchodní vítr 6 kt
Teplota 28°C
Vlhkost vzduchu 79%
Tlak 1013 hPa
Viditelnost: 7000 m
Skoro jasno ve výšce 1600 ft
zákal

METAR: MNPC 202300Z 07006KT 7000 FEW016 28/24 Q1013 HZ

Čas: 21:38 (03:38 UTC)

Předpověď počasí

Zpráva byla vytvořena před 5 hodinami a 18 minutami, v 22:20 UTC
Předpověď platná od 21 v 00 UTC do 21 v 24 UTC
Severní vítr 6 kt
Viditelnost: 7000 m
Polojasno ve výšce 1600 ft
zákal
Dočasný
od 21 v 06 UTC do 21 v 12 UTC
Severní vítr kt
Dočasný
od 21 v 13 UTC do 21 v 20 UTC
Východní vítr 10 kt
mrholení

TAF: MNPC 202220Z 2100/2124 36006KT 7000 HZ SCT016 TEMPO 2106/2112 00000KT TEMPO 2113/2120 08010KT DZ

Stav a předpovědi počasí z více než 4 000 letišť (zprávy METAR a TAF).

Červené a žluté tečky na mapě představují dostupné meteorologické stanice.

Když kurzor umístíte na tečku, zobrazí se název stanice.

Pak kliknutím zobrazíte stav a předpověď počasí.

Chcete-li změnit mapu, kliknutím na zelené tlačítko se znaménkem +mapu přiblížíte, kliknutím na zelené tlačítko se znaménkem – mapu oddálíte a kliknutím na zelené šipky přejdete na sousední mapy.


METAR-TAF: